sensor_id;sensor_type;location;lat;lon;timestamp;pressure;altitude;pressure_sealevel;temperature;humidity
47522;BME280;32291;52.010;4.446;2023-04-02T00:03:23;78852.78;;;-144.67;100.00
47522;BME280;32291;52.010;4.446;2023-04-02T00:04:25;78848.50;;;-144.67;100.00
47522;BME280;32291;52.010;4.446;2023-04-02T00:05:37;78842.09;;;-144.67;100.00
47522;BME280;32291;52.010;4.446;2023-04-02T00:07:24;78876.34;;;-144.67;100.00
47522;BME280;32291;52.010;4.446;2023-04-02T00:08:38;78857.06;;;-144.67;100.00
47522;BME280;32291;52.010;4.446;2023-04-02T00:09:41;78852.78;;;-144.67;100.00
47522;BME280;32291;52.010;4.446;2023-04-02T00:10:53;78863.50;;;-144.67;100.00
47522;BME280;32291;52.010;4.446;2023-04-02T00:11:56;78863.50;;;-144.67;100.00
47522;BME280;32291;52.010;4.446;2023-04-02T00:14:16;78852.78;;;-144.67;100.00
47522;BME280;32291;52.010;4.446;2023-04-02T00:15:19;78844.22;;;-144.67;100.00
47522;BME280;32291;52.010;4.446;2023-04-02T00:16:23;78844.22;;;-144.67;100.00
47522;BME280;32291;52.010;4.446;2023-04-02T00:17:25;78854.94;;;-144.67;100.00
47522;BME280;32291;52.010;4.446;2023-04-02T00:18:26;78844.22;;;-144.67;100.00
47522;BME280;32291;52.010;4.446;2023-04-02T00:19:53;78850.66;;;-144.67;100.00
47522;BME280;32291;52.010;4.446;2023-04-02T00:21:21;78869.94;;;-144.67;100.00
47522;BME280;32291;52.010;4.446;2023-04-02T00:22:30;78865.66;;;-144.67;100.00
47522;BME280;32291;52.010;4.446;2023-04-02T00:23:38;78865.66;;;-144.67;100.00
47522;BME280;32291;52.010;4.446;2023-04-02T00:24:40;78867.78;;;-144.67;100.00
47522;BME280;32291;52.010;4.446;2023-04-02T00:25:44;78887.06;;;-144.67;100.00
47522;BME280;32291;52.010;4.446;2023-04-02T00:26:52;78908.47;;;-144.67;100.00
47522;BME280;32291;52.010;4.446;2023-04-02T00:27:55;78887.06;;;-144.67;100.00
47522;BME280;32291;52.010;4.446;2023-04-02T00:29:03;78874.22;;;-144.67;100.00
47522;BME280;32291;52.010;4.446;2023-04-02T00:30:07;78891.34;;;-144.67;100.00
47522;BME280;32291;52.010;4.446;2023-04-02T00:31:09;78908.47;;;-144.67;100.00
47522;BME280;32291;52.010;4.446;2023-04-02T00:32:24;78895.63;;;-144.67;100.00
47522;BME280;32291;52.010;4.446;2023-04-02T00:33:30;78887.06;;;-144.67;100.00
47522;BME280;32291;52.010;4.446;2023-04-02T00:34:36;78895.63;;;-144.67;100.00
47522;BME280;32291;52.010;4.446;2023-04-02T00:35:39;78884.91;;;-144.67;100.00
47522;BME280;32291;52.010;4.446;2023-04-02T00:36:42;78884.91;;;-144.67;100.00
47522;BME280;32291;52.010;4.446;2023-04-02T00:37:45;78891.34;;;-144.67;100.00
47522;BME280;32291;52.010;4.446;2023-04-02T00:38:47;78891.34;;;-144.67;100.00
47522;BME280;32291;52.010;4.446;2023-04-02T00:40:27;78899.91;;;-144.67;100.00
47522;BME280;32291;52.010;4.446;2023-04-02T00:41:31;78899.91;;;-144.67;100.00
47522;BME280;32291;52.010;4.446;2023-04-02T00:42:39;78908.47;;;-144.67;100.00
47522;BME280;32291;52.010;4.446;2023-04-02T00:43:44;78934.16;;;-144.67;100.00
47522;BME280;32291;52.010;4.446;2023-04-02T00:44:48;78940.59;;;-144.67;100.00
47522;BME280;32291;52.010;4.446;2023-04-02T00:45:57;78940.59;;;-144.67;100.00
47522;BME280;32291;52.010;4.446;2023-04-02T00:47:34;78951.31;;;-144.67;100.00
47522;BME280;32291;52.010;4.446;2023-04-02T00:49:09;78947.03;;;-144.67;100.00
47522;BME280;32291;52.010;4.446;2023-04-02T00:50:25;78942.72;;;-144.67;100.00
47522;BME280;32291;52.010;4.446;2023-04-02T00:51:53;78947.03;;;-144.67;100.00
47522;BME280;32291;52.010;4.446;2023-04-02T00:52:58;78938.44;;;-144.67;100.00
47522;BME280;32291;52.010;4.446;2023-04-02T00:54:05;78942.72;;;-144.67;100.00
47522;BME280;32291;52.010;4.446;2023-04-02T00:56:35;78944.88;;;-144.67;100.00
47522;BME280;32291;52.010;4.446;2023-04-02T00:57:44;78942.72;;;-144.67;100.00
47522;BME280;32291;52.010;4.446;2023-04-02T00:58:52;78940.59;;;-144.67;100.00
47522;BME280;32291;52.010;4.446;2023-04-02T01:00:32;78951.31;;;-144.67;100.00
47522;BME280;32291;52.010;4.446;2023-04-02T01:01:36;78955.59;;;-144.67;100.00
47522;BME280;32291;52.010;4.446;2023-04-02T01:02:42;78955.59;;;-144.67;100.00
47522;BME280;32291;52.010;4.446;2023-04-02T01:04:04;78936.31;;;-144.67;100.00
47522;BME280;32291;52.010;4.446;2023-04-02T01:06:18;78964.16;;;-144.67;100.00
47522;BME280;32291;52.010;4.446;2023-04-02T01:11:59;78959.88;;;-144.67;100.00
47522;BME280;32291;52.010;4.446;2023-04-02T01:17:33;78970.56;;;-144.67;100.00
47522;BME280;32291;52.010;4.446;2023-04-02T01:18:57;78968.44;;;-144.67;100.00
47522;BME280;32291;52.010;4.446;2023-04-02T01:21:06;78989.84;;;-144.67;100.00
47522;BME280;32291;52.010;4.446;2023-04-02T01:24:58;78981.28;;;-144.67;100.00
47522;BME280;32291;52.010;4.446;2023-04-02T01:26:23;78996.25;;;-144.67;100.00
47522;BME280;32291;52.010;4.446;2023-04-02T01:27:35;79024.09;;;-144.67;100.00
47522;BME280;32291;52.010;4.446;2023-04-02T01:29:59;79004.84;;;-144.67;100.00
47522;BME280;32291;52.010;4.446;2023-04-02T01:31:02;78994.13;;;-144.67;100.00
47522;BME280;32291;52.010;4.446;2023-04-02T01:32:12;78991.97;;;-144.67;100.00
47522;BME280;32291;52.010;4.446;2023-04-02T01:33:15;78994.13;;;-144.67;100.00
47522;BME280;32291;52.010;4.446;2023-04-02T01:34:21;78989.84;;;-144.67;100.00
47522;BME280;32291;52.010;4.446;2023-04-02T01:35:26;79011.25;;;-144.67;100.00
47522;BME280;32291;52.010;4.446;2023-04-02T01:38:14;79019.81;;;-144.67;100.00
47522;BME280;32291;52.010;4.446;2023-04-02T01:44:51;79026.25;;;-144.67;100.00
47522;BME280;32291;52.010;4.446;2023-04-02T01:45:53;79030.53;;;-144.67;100.00
47522;BME280;32291;52.010;4.446;2023-04-02T01:46:57;79015.53;;;-144.67;100.00
47522;BME280;32291;52.010;4.446;2023-04-02T01:48:08;79026.25;;;-144.67;100.00
47522;BME280;32291;52.010;4.446;2023-04-02T01:49:19;79045.53;;;-144.67;100.00
47522;BME280;32291;52.010;4.446;2023-04-02T01:50:35;79043.38;;;-144.67;100.00
47522;BME280;32291;52.010;4.446;2023-04-02T01:51:43;79058.38;;;-144.67;100.00
47522;BME280;32291;52.010;4.446;2023-04-02T01:52:50;79062.66;;;-144.67;100.00
47522;BME280;32291;52.010;4.446;2023-04-02T01:53:54;79064.78;;;-144.67;100.00
47522;BME280;32291;52.010;4.446;2023-04-02T01:54:56;79049.81;;;-144.67;100.00
47522;BME280;32291;52.010;4.446;2023-04-02T01:56:01;79054.09;;;-144.67;100.00
47522;BME280;32291;52.010;4.446;2023-04-02T01:57:06;79051.94;;;-144.67;100.00
47522;BME280;32291;52.010;4.446;2023-04-02T01:58:10;79051.94;;;-144.67;100.00
47522;BME280;32291;52.010;4.446;2023-04-02T01:59:17;79066.94;;;-144.67;100.00
47522;BME280;32291;52.010;4.446;2023-04-02T02:00:21;79062.66;;;-144.67;100.00
47522;BME280;32291;52.010;4.446;2023-04-02T02:01:42;79049.81;;;-144.67;100.00
47522;BME280;32291;52.010;4.446;2023-04-02T02:02:49;79064.78;;;-144.67;100.00
47522;BME280;32291;52.010;4.446;2023-04-02T02:03:53;79064.78;;;-144.67;100.00
47522;BME280;32291;52.010;4.446;2023-04-02T02:04:55;79062.66;;;-144.67;100.00
47522;BME280;32291;52.010;4.446;2023-04-02T02:05:58;79047.66;;;-144.67;100.00
47522;BME280;32291;52.010;4.446;2023-04-02T02:07:01;79041.25;;;-144.67;100.00
47522;BME280;32291;52.010;4.446;2023-04-02T02:08:11;79054.09;;;-144.67;100.00
47522;BME280;32291;52.010;4.446;2023-04-02T02:09:27;79054.09;;;-144.67;100.00
47522;BME280;32291;52.010;4.446;2023-04-02T02:10:36;79058.38;;;-144.67;100.00
47522;BME280;32291;52.010;4.446;2023-04-02T02:11:40;79060.50;;;-144.67;100.00
47522;BME280;32291;52.010;4.446;2023-04-02T02:12:44;79058.38;;;-144.67;100.00
47522;BME280;32291;52.010;4.446;2023-04-02T02:13:57;79079.78;;;-144.67;100.00
47522;BME280;32291;52.010;4.446;2023-04-02T02:15:00;79075.50;;;-144.67;100.00
47522;BME280;32291;52.010;4.446;2023-04-02T02:16:03;79073.34;;;-144.67;100.00
47522;BME280;32291;52.010;4.446;2023-04-02T02:17:09;79079.78;;;-144.67;100.00
47522;BME280;32291;52.010;4.446;2023-04-02T02:18:19;79081.94;;;-144.67;100.00
47522;BME280;32291;52.010;4.446;2023-04-02T02:19:38;79084.06;;;-144.67;100.00
47522;BME280;32291;52.010;4.446;2023-04-02T02:20:41;79084.06;;;-144.67;100.00
47522;BME280;32291;52.010;4.446;2023-04-02T02:21:50;79099.06;;;-144.67;100.00
47522;BME280;32291;52.010;4.446;2023-04-02T02:22:53;79090.50;;;-144.67;100.00
47522;BME280;32291;52.010;4.446;2023-04-02T02:23:57;79101.19;;;-144.67;100.00
47522;BME280;32291;52.010;4.446;2023-04-02T02:25:03;79096.91;;;-144.67;100.00
47522;BME280;32291;52.010;4.446;2023-04-02T02:26:06;79096.91;;;-144.67;100.00
47522;BME280;32291;52.010;4.446;2023-04-02T02:28:32;79118.34;;;-144.67;100.00
47522;BME280;32291;52.010;4.446;2023-04-02T02:29:41;79111.91;;;-144.67;100.00
47522;BME280;32291;52.010;4.446;2023-04-02T02:30:59;79122.63;;;-144.67;100.00
47522;BME280;32291;52.010;4.446;2023-04-02T02:32:06;79116.19;;;-144.67;100.00
47522;BME280;32291;52.010;4.446;2023-04-02T02:33:25;79118.34;;;-144.67;100.00
47522;BME280;32291;52.010;4.446;2023-04-02T02:34:36;79122.63;;;-144.67;100.00
47522;BME280;32291;52.010;4.446;2023-04-02T02:35:54;79120.47;;;-144.67;100.00
47522;BME280;32291;52.010;4.446;2023-04-02T02:37:23;79118.34;;;-144.67;100.00
47522;BME280;32291;52.010;4.446;2023-04-02T02:39:16;79114.06;;;-144.67;100.00
47522;BME280;32291;52.010;4.446;2023-04-02T02:40:20;79118.34;;;-144.67;100.00
47522;BME280;32291;52.010;4.446;2023-04-02T02:41:44;79107.63;;;-144.67;100.00
47522;BME280;32291;52.010;4.446;2023-04-02T02:42:55;79118.34;;;-144.67;100.00
47522;BME280;32291;52.010;4.446;2023-04-02T02:45:16;79135.47;;;-144.67;100.00
47522;BME280;32291;52.010;4.446;2023-04-02T02:46:22;79129.03;;;-144.67;100.00
47522;BME280;32291;52.010;4.446;2023-04-02T02:47:28;79129.03;;;-144.67;100.00
47522;BME280;32291;52.010;4.446;2023-04-02T02:48:38;79126.91;;;-144.67;100.00
47522;BME280;32291;52.010;4.446;2023-04-02T02:49:45;79116.19;;;-144.67;100.00
47522;BME280;32291;52.010;4.446;2023-04-02T02:50:51;79146.16;;;-144.67;100.00
47522;BME280;32291;52.010;4.446;2023-04-02T02:52:13;79133.31;;;-144.67;100.00
47522;BME280;32291;52.010;4.446;2023-04-02T02:53:22;79133.31;;;-144.67;100.00
47522;BME280;32291;52.010;4.446;2023-04-02T02:54:26;79124.75;;;-144.67;100.00
47522;BME280;32291;52.010;4.446;2023-04-02T02:55:36;79131.19;;;-144.67;100.00
47522;BME280;32291;52.010;4.446;2023-04-02T02:56:46;79135.47;;;-144.67;100.00
47522;BME280;32291;52.010;4.446;2023-04-02T02:58:14;79152.59;;;-144.67;100.00
47522;BME280;32291;52.010;4.446;2023-04-02T02:59:19;79141.88;;;-144.67;100.00
47522;BME280;32291;52.010;4.446;2023-04-02T03:00:24;79141.88;;;-144.67;100.00
47522;BME280;32291;52.010;4.446;2023-04-02T03:01:29;79156.88;;;-144.67;100.00
47522;BME280;32291;52.010;4.446;2023-04-02T03:02:35;79159.03;;;-144.67;100.00
47522;BME280;32291;52.010;4.446;2023-04-02T03:03:38;79161.16;;;-144.67;100.00
47522;BME280;32291;52.010;4.446;2023-04-02T03:04:49;79152.59;;;-144.67;100.00
47522;BME280;32291;52.010;4.446;2023-04-02T03:06:03;79161.16;;;-144.67;100.00
47522;BME280;32291;52.010;4.446;2023-04-02T03:07:07;79171.88;;;-144.67;100.00
47522;BME280;32291;52.010;4.446;2023-04-02T03:08:26;79159.03;;;-144.67;100.00
47522;BME280;32291;52.010;4.446;2023-04-02T03:12:06;79186.84;;;-144.67;100.00
47522;BME280;32291;52.010;4.446;2023-04-02T03:13:28;79195.44;;;-144.67;100.00
47522;BME280;32291;52.010;4.446;2023-04-02T03:14:45;79195.44;;;-144.67;100.00
47522;BME280;32291;52.010;4.446;2023-04-02T03:17:46;79221.13;;;-144.67;100.00
47522;BME280;32291;52.010;4.446;2023-04-02T03:20:37;79229.69;;;-144.67;100.00
47522;BME280;32291;52.010;4.446;2023-04-02T03:21:50;79210.41;;;-144.67;100.00
47522;BME280;32291;52.010;4.446;2023-04-02T03:25:55;79223.25;;;-144.67;100.00
47522;BME280;32291;52.010;4.446;2023-04-02T03:27:23;79233.97;;;-144.67;100.00
47522;BME280;32291;52.010;4.446;2023-04-02T03:28:33;79246.81;;;-144.67;100.00
47522;BME280;32291;52.010;4.446;2023-04-02T03:29:45;79246.81;;;-144.67;100.00
47522;BME280;32291;52.010;4.446;2023-04-02T03:31:22;79244.69;;;-144.67;100.00
47522;BME280;32291;52.010;4.446;2023-04-02T03:32:31;79246.81;;;-144.67;100.00
47522;BME280;32291;52.010;4.446;2023-04-02T03:33:58;79251.09;;;-144.67;100.00
47522;BME280;32291;52.010;4.446;2023-04-02T03:35:18;79281.09;;;-144.67;100.00
47522;BME280;32291;52.010;4.446;2023-04-02T03:37:00;79285.38;;;-144.67;100.00
47522;BME280;32291;52.010;4.446;2023-04-02T03:39:17;79263.97;;;-144.67;100.00
47522;BME280;32291;52.010;4.446;2023-04-02T03:40:54;79259.66;;;-144.67;100.00
47522;BME280;32291;52.010;4.446;2023-04-02T03:42:07;79266.09;;;-144.67;100.00
47522;BME280;32291;52.010;4.446;2023-04-02T03:43:23;79281.09;;;-144.67;100.00
47522;BME280;32291;52.010;4.446;2023-04-02T03:44:42;79326.06;;;-144.67;100.00
47522;BME280;32291;52.010;4.446;2023-04-02T03:45:56;79293.94;;;-144.67;100.00
47522;BME280;32291;52.010;4.446;2023-04-02T03:47:32;79293.94;;;-144.67;100.00
47522;BME280;32291;52.010;4.446;2023-04-02T03:48:46;79289.66;;;-144.67;100.00
47522;BME280;32291;52.010;4.446;2023-04-02T03:52:22;79306.78;;;-144.67;100.00
47522;BME280;32291;52.010;4.446;2023-04-02T03:53:27;79304.66;;;-144.67;100.00
47522;BME280;32291;52.010;4.446;2023-04-02T03:54:30;79319.63;;;-144.67;100.00
47522;BME280;32291;52.010;4.446;2023-04-02T03:55:36;79328.19;;;-144.67;100.00
47522;BME280;32291;52.010;4.446;2023-04-02T03:56:39;79332.50;;;-144.67;100.00
47522;BME280;32291;52.010;4.446;2023-04-02T03:59:33;79336.78;;;-144.67;100.00
47522;BME280;32291;52.010;4.446;2023-04-02T04:02:44;79349.63;;;-144.67;100.00
47522;BME280;32291;52.010;4.446;2023-04-02T04:03:55;79330.34;;;-144.67;100.00
47522;BME280;32291;52.010;4.446;2023-04-02T04:04:59;79330.34;;;-144.67;100.00
47522;BME280;32291;52.010;4.446;2023-04-02T04:06:09;79362.47;;;-144.67;100.00
47522;BME280;32291;52.010;4.446;2023-04-02T04:07:31;79353.91;;;-144.67;100.00
47522;BME280;32291;52.010;4.446;2023-04-02T04:08:52;79366.75;;;-144.67;100.00
47522;BME280;32291;52.010;4.446;2023-04-02T04:09:57;79375.31;;;-144.67;100.00
47522;BME280;32291;52.010;4.446;2023-04-02T04:11:09;79375.31;;;-144.67;100.00
47522;BME280;32291;52.010;4.446;2023-04-02T04:13:44;79401.03;;;-144.67;100.00
47522;BME280;32291;52.010;4.446;2023-04-02T04:14:59;79388.16;;;-144.67;100.00
47522;BME280;32291;52.010;4.446;2023-04-02T04:16:10;79388.16;;;-144.67;100.00
47522;BME280;32291;52.010;4.446;2023-04-02T04:17:25;79386.03;;;-144.67;100.00
47522;BME280;32291;52.010;4.446;2023-04-02T04:18:50;79386.03;;;-144.67;100.00
47522;BME280;32291;52.010;4.446;2023-04-02T04:20:02;79371.03;;;-144.67;100.00
47522;BME280;32291;52.010;4.446;2023-04-02T04:21:25;79371.03;;;-144.67;100.00
47522;BME280;32291;52.010;4.446;2023-04-02T04:22:39;79375.31;;;-144.67;100.00
47522;BME280;32291;52.010;4.446;2023-04-02T04:23:49;79362.47;;;-144.67;100.00
47522;BME280;32291;52.010;4.446;2023-04-02T04:24:51;79375.31;;;-144.67;100.00
47522;BME280;32291;52.010;4.446;2023-04-02T04:27:39;79362.47;;;-144.67;100.00
47522;BME280;32291;52.010;4.446;2023-04-02T04:29:14;79358.19;;;-144.67;100.00
47522;BME280;32291;52.010;4.446;2023-04-02T04:30:38;79349.63;;;-144.67;100.00
47522;BME280;32291;52.010;4.446;2023-04-02T04:31:47;79347.47;;;-144.67;100.00
47522;BME280;32291;52.010;4.446;2023-04-02T04:33:04;79353.91;;;-144.67;100.00
47522;BME280;32291;52.010;4.446;2023-04-02T04:34:26;79366.75;;;-144.67;100.00
47522;BME280;32291;52.010;4.446;2023-04-02T04:35:37;79375.31;;;-144.67;100.00
47522;BME280;32291;52.010;4.446;2023-04-02T04:36:46;79383.88;;;-144.67;100.00
47522;BME280;32291;52.010;4.446;2023-04-02T04:38:01;79392.44;;;-144.67;100.00
47522;BME280;32291;52.010;4.446;2023-04-02T04:39:12;79390.31;;;-144.67;100.00
47522;BME280;32291;52.010;4.446;2023-04-02T04:40:27;79383.88;;;-144.67;100.00
47522;BME280;32291;52.010;4.446;2023-04-02T04:41:37;79386.03;;;-144.67;100.00
47522;BME280;32291;52.010;4.446;2023-04-02T04:42:42;79383.88;;;-144.67;100.00
47522;BME280;32291;52.010;4.446;2023-04-02T04:44:03;79368.91;;;-144.67;100.00
47522;BME280;32291;52.010;4.446;2023-04-02T04:46:38;79371.03;;;-144.67;100.00
47522;BME280;32291;52.010;4.446;2023-04-02T04:47:52;79379.59;;;-144.67;100.00
47522;BME280;32291;52.010;4.446;2023-04-02T04:49:34;79383.88;;;-144.67;100.00
47522;BME280;32291;52.010;4.446;2023-04-02T04:51:18;79396.75;;;-144.67;100.00
47522;BME280;32291;52.010;4.446;2023-04-02T04:52:26;79396.75;;;-144.67;100.00
47522;BME280;32291;52.010;4.446;2023-04-02T04:53:31;79386.03;;;-144.67;100.00
47522;BME280;32291;52.010;4.446;2023-04-02T04:54:38;79392.44;;;-144.67;100.00
47522;BME280;32291;52.010;4.446;2023-04-02T04:55:46;79383.88;;;-144.67;100.00
47522;BME280;32291;52.010;4.446;2023-04-02T04:57:02;79388.16;;;-144.67;100.00
47522;BME280;32291;52.010;4.446;2023-04-02T04:58:26;79388.16;;;-144.67;100.00
47522;BME280;32291;52.010;4.446;2023-04-02T04:59:48;79396.75;;;-144.67;100.00
47522;BME280;32291;52.010;4.446;2023-04-02T05:01:44;79409.59;;;-144.67;100.00
47522;BME280;32291;52.010;4.446;2023-04-02T05:03:04;79422.44;;;-144.67;100.00
47522;BME280;32291;52.010;4.446;2023-04-02T05:04:38;79431.00;;;-144.67;100.00
47522;BME280;32291;52.010;4.446;2023-04-02T05:05:40;79431.00;;;-144.67;100.00
47522;BME280;32291;52.010;4.446;2023-04-02T05:07:58;79431.00;;;-144.67;100.00
47522;BME280;32291;52.010;4.446;2023-04-02T05:09:33;79456.69;;;-144.67;100.00
47522;BME280;32291;52.010;4.446;2023-04-02T05:10:55;79461.00;;;-144.67;100.00
47522;BME280;32291;52.010;4.446;2023-04-02T05:13:52;79469.56;;;-144.67;100.00
47522;BME280;32291;52.010;4.446;2023-04-02T05:16:55;79512.38;;;-144.67;100.00
47522;BME280;32291;52.010;4.446;2023-04-02T05:18:31;79497.41;;;-144.67;100.00
47522;BME280;32291;52.010;4.446;2023-04-02T05:19:51;79482.41;;;-144.67;100.00
47522;BME280;32291;52.010;4.446;2023-04-02T05:21:07;79490.97;;;-144.67;100.00
47522;BME280;32291;52.010;4.446;2023-04-02T05:23:34;79493.13;;;-144.67;100.00
47522;BME280;32291;52.010;4.446;2023-04-02T05:24:58;79499.53;;;-144.67;100.00
47522;BME280;32291;52.010;4.446;2023-04-02T05:26:31;79512.38;;;-144.67;100.00
47522;BME280;32291;52.010;4.446;2023-04-02T05:29:21;79510.25;;;-144.67;100.00
47522;BME280;32291;52.010;4.446;2023-04-02T05:31:43;79533.81;;;-144.67;100.00
47522;BME280;32291;52.010;4.446;2023-04-02T05:33:03;79544.53;;;-144.67;100.00
47522;BME280;32291;52.010;4.446;2023-04-02T05:34:11;79546.66;;;-144.67;100.00
47522;BME280;32291;52.010;4.446;2023-04-02T05:35:19;79529.53;;;-144.67;100.00
47522;BME280;32291;52.010;4.446;2023-04-02T05:36:28;79538.09;;;-144.67;100.00
47522;BME280;32291;52.010;4.446;2023-04-02T05:37:30;79540.22;;;-144.67;100.00
47522;BME280;32291;52.010;4.446;2023-04-02T05:38:37;79553.09;;;-144.67;100.00
47522;BME280;32291;52.010;4.446;2023-04-02T05:39:44;79555.22;;;-144.67;100.00
47522;BME280;32291;52.010;4.446;2023-04-02T05:40:51;79563.78;;;-144.67;100.00
47522;BME280;32291;52.010;4.446;2023-04-02T05:42:06;79550.94;;;-144.67;100.00
47522;BME280;32291;52.010;4.446;2023-04-02T05:43:14;79550.94;;;-144.67;100.00
47522;BME280;32291;52.010;4.446;2023-04-02T05:44:33;79550.94;;;-144.67;100.00
47522;BME280;32291;52.010;4.446;2023-04-02T05:45:40;79578.78;;;-144.67;100.00
47522;BME280;32291;52.010;4.446;2023-04-02T05:46:53;79565.94;;;-144.67;100.00
47522;BME280;32291;52.010;4.446;2023-04-02T05:47:59;79563.78;;;-144.67;100.00
47522;BME280;32291;52.010;4.446;2023-04-02T05:49:10;79570.22;;;-144.67;100.00
47522;BME280;32291;52.010;4.446;2023-04-02T05:50:39;79555.22;;;-144.67;100.00
47522;BME280;32291;52.010;4.446;2023-04-02T05:51:47;79570.22;;;-144.67;100.00
47522;BME280;32291;52.010;4.446;2023-04-02T05:53:00;79548.81;;;-144.67;100.00
47522;BME280;32291;52.010;4.446;2023-04-02T05:54:15;79555.22;;;-144.67;100.00
47522;BME280;32291;52.010;4.446;2023-04-02T05:56:04;79546.66;;;-144.67;100.00
47522;BME280;32291;52.010;4.446;2023-04-02T05:57:42;79563.78;;;-144.67;100.00
47522;BME280;32291;52.010;4.446;2023-04-02T05:58:59;79561.66;;;-144.67;100.00
47522;BME280;32291;52.010;4.446;2023-04-02T06:00:14;79565.94;;;-144.67;100.00
47522;BME280;32291;52.010;4.446;2023-04-02T06:01:41;79563.78;;;-144.67;100.00
47522;BME280;32291;52.010;4.446;2023-04-02T06:02:56;79565.94;;;-144.67;100.00
47522;BME280;32291;52.010;4.446;2023-04-02T06:04:38;79576.63;;;-144.67;100.00
47522;BME280;32291;52.010;4.446;2023-04-02T06:05:45;79591.63;;;-144.67;100.00
47522;BME280;32291;52.010;4.446;2023-04-02T06:07:07;79587.34;;;-144.67;100.00
47522;BME280;32291;52.010;4.446;2023-04-02T06:08:22;79604.47;;;-144.67;100.00
47522;BME280;32291;52.010;4.446;2023-04-02T06:10:32;79602.34;;;-144.67;100.00
47522;BME280;32291;52.010;4.446;2023-04-02T06:11:45;79593.78;;;-144.67;100.00
47522;BME280;32291;52.010;4.446;2023-04-02T06:13:10;79589.50;;;-144.67;100.00
47522;BME280;32291;52.010;4.446;2023-04-02T06:14:16;79608.78;;;-144.67;100.00
47522;BME280;32291;52.010;4.446;2023-04-02T06:15:22;79606.63;;;-144.67;100.00
47522;BME280;32291;52.010;4.446;2023-04-02T06:16:28;79621.63;;;-144.67;100.00
47522;BME280;32291;52.010;4.446;2023-04-02T06:19:30;79666.59;;;-144.67;100.00
47522;BME280;32291;52.010;4.446;2023-04-02T06:20:33;79647.31;;;-144.67;100.00
47522;BME280;32291;52.010;4.446;2023-04-02T06:21:46;79679.44;;;-144.67;100.00
47522;BME280;32291;52.010;4.446;2023-04-02T06:23:16;79683.72;;;-144.67;100.00
47522;BME280;32291;52.010;4.446;2023-04-02T06:24:24;79653.75;;;-144.67;100.00
47522;BME280;32291;52.010;4.446;2023-04-02T06:25:50;79666.59;;;-144.67;100.00
47522;BME280;32291;52.010;4.446;2023-04-02T06:27:01;79670.88;;;-144.67;100.00
47522;BME280;32291;52.010;4.446;2023-04-02T06:28:14;79662.31;;;-144.67;100.00
47522;BME280;32291;52.010;4.446;2023-04-02T06:29:33;79668.75;;;-144.67;100.00
47522;BME280;32291;52.010;4.446;2023-04-02T06:30:42;79675.16;;;-144.67;100.00
47522;BME280;32291;52.010;4.446;2023-04-02T06:31:59;79681.59;;;-144.67;100.00
47522;BME280;32291;52.010;4.446;2023-04-02T06:33:03;79679.44;;;-144.67;100.00
47522;BME280;32291;52.010;4.446;2023-04-02T06:34:14;79696.59;;;-144.67;100.00
47522;BME280;32291;52.010;4.446;2023-04-02T06:35:16;79703.00;;;-144.67;100.00
47522;BME280;32291;52.010;4.446;2023-04-02T06:36:19;79688.00;;;-144.67;100.00
47522;BME280;32291;52.010;4.446;2023-04-02T06:37:35;79692.31;;;-144.67;100.00
47522;BME280;32291;52.010;4.446;2023-04-02T06:38:39;79677.31;;;-144.67;100.00
47522;BME280;32291;52.010;4.446;2023-04-02T06:39:41;79666.59;;;-144.67;100.00
47522;BME280;32291;52.010;4.446;2023-04-02T06:40:52;79675.16;;;-144.67;100.00
47522;BME280;32291;52.010;4.446;2023-04-02T06:43:30;79653.75;;;-144.67;100.00
47522;BME280;32291;52.010;4.446;2023-04-02T06:44:37;79651.59;;;-144.67;100.00
47522;BME280;32291;52.010;4.446;2023-04-02T06:45:42;79645.19;;;-144.67;100.00
47522;BME280;32291;52.010;4.446;2023-04-02T06:46:51;79640.91;;;-144.67;100.00
47522;BME280;32291;52.010;4.446;2023-04-02T06:47:58;79628.03;;;-144.67;100.00
47522;BME280;32291;52.010;4.446;2023-04-02T06:52:22;79621.63;;;-144.67;100.00
47522;BME280;32291;52.010;4.446;2023-04-02T06:53:37;79630.19;;;-144.67;100.00
47522;BME280;32291;52.010;4.446;2023-04-02T06:54:40;79660.16;;;-144.67;100.00
47522;BME280;32291;52.010;4.446;2023-04-02T06:55:51;79649.47;;;-144.67;100.00
47522;BME280;32291;52.010;4.446;2023-04-02T06:56:55;79640.91;;;-144.67;100.00
47522;BME280;32291;52.010;4.446;2023-04-02T06:57:57;79628.03;;;-144.67;100.00
47522;BME280;32291;52.010;4.446;2023-04-02T06:58:59;79628.03;;;-144.67;100.00
47522;BME280;32291;52.010;4.446;2023-04-02T07:00:01;79628.03;;;-144.67;100.00
47522;BME280;32291;52.010;4.446;2023-04-02T07:01:03;79636.63;;;-144.67;100.00
47522;BME280;32291;52.010;4.446;2023-04-02T07:02:30;79630.19;;;-144.67;100.00
47522;BME280;32291;52.010;4.446;2023-04-02T07:03:36;79649.47;;;-144.67;100.00
47522;BME280;32291;52.010;4.446;2023-04-02T07:04:37;79640.91;;;-144.67;100.00
47522;BME280;32291;52.010;4.446;2023-04-02T07:05:39;79643.03;;;-144.67;100.00
47522;BME280;32291;52.010;4.446;2023-04-02T07:06:41;79649.47;;;-144.67;100.00
47522;BME280;32291;52.010;4.446;2023-04-02T07:07:44;79658.03;;;-144.67;100.00
47522;BME280;32291;52.010;4.446;2023-04-02T07:08:47;79643.03;;;-144.67;100.00
47522;BME280;32291;52.010;4.446;2023-04-02T07:09:49;79647.31;;;-144.67;100.00
47522;BME280;32291;52.010;4.446;2023-04-02T07:10:50;79636.63;;;-144.67;100.00
47522;BME280;32291;52.010;4.446;2023-04-02T07:11:52;79632.34;;;-144.67;100.00
47522;BME280;32291;52.010;4.446;2023-04-02T07:12:54;79630.19;;;-144.67;100.00
47522;BME280;32291;52.010;4.446;2023-04-02T07:13:56;79617.34;;;-144.67;100.00
47522;BME280;32291;52.010;4.446;2023-04-02T07:14:58;79623.75;;;-144.67;100.00